createdAt,value
2023-08-05T00:00:20.487Z,52.79
2023-08-05T00:02:49.192Z,52.85
2023-08-05T00:05:18.055Z,53.10
2023-08-05T00:07:51.336Z,53.42
2023-08-05T00:10:20.206Z,53.49
2023-08-05T00:12:49.104Z,53.80
2023-08-05T00:15:19.642Z,54.01
2023-08-05T00:17:48.390Z,54.23
2023-08-05T00:20:17.260Z,54.28
2023-08-05T00:22:47.365Z,54.55
2023-08-05T00:25:16.195Z,54.76
2023-08-05T00:27:45.069Z,55.05
2023-08-05T00:30:14.370Z,55.15
2023-08-05T00:32:43.228Z,55.26
2023-08-05T00:35:12.063Z,55.71
2023-08-05T00:37:41.023Z,55.94
2023-08-05T00:40:11.175Z,56.42
2023-08-05T00:42:40.080Z,56.46
2023-08-05T00:45:09.625Z,56.93
2023-08-05T00:47:41.287Z,57.24
2023-08-05T00:50:11.064Z,57.53
2023-08-05T00:52:41.209Z,57.54
2023-08-05T00:55:10.142Z,57.60
2023-08-05T00:57:39.165Z,58.08
2023-08-05T01:00:09.345Z,57.73
2023-08-05T01:02:38.101Z,58.40
2023-08-05T01:05:07.128Z,58.47
2023-08-05T01:07:54.769Z,58.89
2023-08-05T01:10:25.141Z,59.11
2023-08-05T01:12:53.880Z,59.27
2023-08-05T01:15:22.852Z,59.67
2023-08-05T01:17:54.333Z,59.47
2023-08-05T01:20:26.100Z,59.54
2023-08-05T01:22:58.543Z,60.03
2023-08-05T01:25:30.428Z,60.01
2023-08-05T01:28:01.898Z,59.99
2023-08-05T01:30:33.255Z,60.50
2023-08-05T01:33:05.423Z,60.60
2023-08-05T01:35:34.184Z,60.71
2023-08-05T01:38:02.961Z,61.18
2023-08-05T01:40:31.971Z,61.25
2023-08-05T01:43:04.416Z,61.72
2023-08-05T01:45:34.724Z,61.66
2023-08-05T01:48:03.576Z,61.93
2023-08-05T01:50:32.421Z,62.46
2023-08-05T01:53:02.784Z,63.24
2023-08-05T01:55:31.704Z,62.96
2023-08-05T01:58:03.737Z,62.94
2023-08-05T02:00:32.721Z,62.93
2023-08-05T02:03:01.624Z,63.20
2023-08-05T02:05:30.498Z,63.90
2023-08-05T02:07:59.239Z,64.04
2023-08-05T02:10:27.990Z,63.91
2023-08-05T02:12:58.439Z,64.44
2023-08-05T02:15:28.989Z,64.52
2023-08-05T02:17:57.881Z,64.65
2023-08-05T02:20:26.729Z,65.08
2023-08-05T02:22:55.421Z,65.55
2023-08-05T02:25:25.846Z,65.44
2023-08-05T02:27:54.565Z,65.83
2023-08-05T02:30:23.270Z,65.86
2023-08-05T02:32:52.017Z,66.15
2023-08-05T02:35:20.720Z,66.50
2023-08-05T02:37:49.527Z,66.35
2023-08-05T02:40:18.421Z,66.94
2023-08-05T02:42:49.120Z,66.91
2023-08-05T02:45:17.971Z,68.04
2023-08-05T02:47:46.859Z,67.86
2023-08-05T02:50:15.709Z,68.27
2023-08-05T02:52:44.319Z,67.86
2023-08-05T02:55:13.223Z,68.59
2023-08-05T02:57:41.925Z,68.61
2023-08-05T03:00:11.994Z,68.53
2023-08-05T03:02:40.829Z,68.88
2023-08-05T03:05:09.929Z,69.33
2023-08-05T03:07:38.723Z,69.34
2023-08-05T03:10:08.057Z,69.74
2023-08-05T03:12:37.087Z,69.57
2023-08-05T03:15:06.247Z,69.95
2023-08-05T03:17:36.568Z,70.52
2023-08-05T03:20:07.042Z,70.48
2023-08-05T03:22:35.905Z,70.05
2023-08-05T03:25:04.654Z,69.75
2023-08-05T03:27:33.513Z,69.45
2023-08-05T03:30:02.232Z,69.38
2023-08-05T03:32:30.981Z,69.54
2023-08-05T03:34:59.774Z,69.75
2023-08-05T03:37:30.934Z,69.80
2023-08-05T03:40:04.122Z,69.14
2023-08-05T03:42:32.951Z,69.02
2023-08-05T03:45:01.815Z,68.71
2023-08-05T03:47:36.193Z,69.12
2023-08-05T03:50:05.294Z,69.64
2023-08-05T03:52:41.504Z,68.83
2023-08-05T03:55:10.562Z,65.48
2023-08-05T03:57:40.874Z,60.94
2023-08-05T04:00:10.601Z,58.36
2023-08-05T04:02:39.542Z,55.52
2023-08-05T04:05:08.725Z,53.84
2023-08-05T04:07:38.987Z,53.13
2023-08-05T04:10:08.707Z,52.41
2023-08-05T04:12:37.702Z,52.30
2023-08-05T04:15:09.365Z,50.56
2023-08-05T04:17:38.145Z,49.33
2023-08-05T04:20:08.093Z,48.11
2023-08-05T04:22:37.957Z,47.53
2023-08-05T04:25:07.877Z,46.76
2023-08-05T04:27:38.536Z,45.58
2023-08-05T04:30:09.189Z,44.71
2023-08-05T04:32:42.423Z,45.57
2023-08-05T04:35:11.657Z,49.06
2023-08-05T04:37:40.397Z,51.77
2023-08-05T04:40:12.913Z,54.26
2023-08-05T04:42:41.741Z,56.28
2023-08-05T04:45:12.348Z,56.05
2023-08-05T04:47:42.726Z,57.08
2023-08-05T04:50:13.428Z,57.43
2023-08-05T04:52:45.517Z,57.88
2023-08-05T04:55:16.931Z,57.61
2023-08-05T04:57:47.378Z,56.61
2023-08-05T05:00:16.168Z,56.43
2023-08-05T05:02:44.858Z,56.00
2023-08-05T05:05:14.255Z,56.29
2023-08-05T05:07:43.051Z,55.91
2023-08-05T05:10:13.686Z,55.81
2023-08-05T05:12:44.223Z,56.18
2023-08-05T05:15:13.309Z,55.21
2023-08-05T05:17:42.149Z,54.91
2023-08-05T05:20:11.316Z,54.83
2023-08-05T05:22:40.340Z,55.07
2023-08-05T05:25:09.332Z,55.00
2023-08-05T05:27:38.904Z,54.46
2023-08-05T05:30:08.473Z,53.94
2023-08-05T05:32:37.561Z,54.04
2023-08-05T05:35:06.664Z,53.51
2023-08-05T05:37:37.010Z,53.88
2023-08-05T05:40:06.206Z,53.96
2023-08-05T05:42:35.022Z,53.36
2023-08-05T05:45:04.206Z,53.07
2023-08-05T05:47:32.933Z,53.17
2023-08-05T05:50:01.942Z,54.23
2023-08-05T05:52:31.315Z,54.83
2023-08-05T05:55:00.129Z,54.19
2023-08-05T05:57:29.019Z,54.11
2023-08-05T06:00:00.928Z,53.34
2023-08-05T06:02:33.477Z,53.60
2023-08-05T06:05:02.456Z,53.37
2023-08-05T06:07:33.593Z,51.63
2023-08-05T06:10:04.212Z,52.14
2023-08-05T06:12:34.641Z,50.18
2023-08-05T06:15:05.391Z,50.38
2023-08-05T06:17:34.279Z,49.57
2023-08-05T06:20:04.050Z,49.03
2023-08-05T06:22:32.722Z,49.17
2023-08-05T06:25:01.791Z,48.73
2023-08-05T06:27:31.977Z,48.36
2023-08-05T06:30:01.487Z,49.41
2023-08-05T06:32:30.320Z,49.35
2023-08-05T06:34:59.221Z,48.51
2023-08-05T06:37:27.814Z,48.80
2023-08-05T06:39:58.504Z,47.78
2023-08-05T06:42:36.539Z,47.51
2023-08-05T06:45:10.978Z,47.10
2023-08-05T06:47:40.085Z,47.20
2023-08-05T06:50:10.986Z,47.67
2023-08-05T06:52:39.705Z,47.30
2023-08-05T06:55:09.978Z,47.49
2023-08-05T06:57:42.853Z,46.47
2023-08-05T07:00:12.587Z,46.67
2023-08-05T07:02:41.394Z,46.14
2023-08-05T07:05:10.287Z,46.31
2023-08-05T07:07:38.975Z,46.28
2023-08-05T07:10:10.025Z,45.88
2023-08-05T07:12:40.334Z,45.33
2023-08-05T07:15:13.661Z,45.35
2023-08-05T07:17:43.223Z,44.66
2023-08-05T07:20:12.563Z,44.66
2023-08-05T07:22:41.524Z,44.28
2023-08-05T07:25:10.383Z,44.02
2023-08-05T07:27:39.123Z,44.37
2023-08-05T07:30:09.281Z,44.34
2023-08-05T07:32:38.196Z,44.53
2023-08-05T07:35:09.175Z,44.64
2023-08-05T07:37:38.024Z,44.60
2023-08-05T07:40:08.765Z,44.60
2023-08-05T07:42:37.516Z,44.77
2023-08-05T07:45:08.290Z,45.23
2023-08-05T07:47:38.533Z,44.50
2023-08-05T07:50:08.664Z,44.19
2023-08-05T07:52:37.540Z,43.94
2023-08-05T07:55:10.411Z,43.75
2023-08-05T07:57:42.253Z,44.36
2023-08-05T08:00:13.176Z,43.77
2023-08-05T08:02:45.981Z,43.80
2023-08-05T08:05:19.632Z,43.89
2023-08-05T08:07:48.677Z,44.23
2023-08-05T08:10:17.900Z,43.50
2023-08-05T08:12:49.687Z,43.74
2023-08-05T08:15:30.465Z,43.87
2023-08-05T08:17:59.531Z,43.78
2023-08-05T08:20:28.370Z,42.81
2023-08-05T08:23:07.194Z,42.59
2023-08-05T08:25:38.478Z,43.37
2023-08-05T08:28:35.049Z,43.55
2023-08-05T08:37:02.416Z,43.61
2023-08-05T08:39:31.285Z,43.96
2023-08-05T08:42:00.287Z,43.42
2023-08-05T08:44:35.271Z,43.23
2023-08-05T08:47:15.052Z,42.58
2023-08-05T08:49:47.432Z,42.50
2023-08-05T08:52:23.167Z,42.58
2023-08-05T08:55:00.572Z,42.44
2023-08-05T08:57:31.222Z,42.34
2023-08-05T09:00:01.857Z,43.51
2023-08-05T09:02:32.978Z,43.05
2023-08-05T09:05:11.768Z,42.64
2023-08-05T09:07:46.477Z,43.17
2023-08-05T09:14:00.322Z,42.41
2023-08-05T09:16:20.989Z,42.16
2023-08-05T09:18:59.357Z,41.99
2023-08-05T09:21:28.068Z,41.64
2023-08-05T09:23:58.030Z,40.91
2023-08-05T09:26:33.533Z,40.96
2023-08-05T09:29:09.055Z,40.27
2023-08-05T09:31:39.368Z,40.40
2023-08-05T09:34:10.740Z,40.41
2023-08-05T09:36:41.936Z,39.92
2023-08-05T09:39:18.038Z,39.38
2023-08-05T09:41:59.251Z,38.85
2023-08-05T09:44:28.937Z,39.69
2023-08-05T09:47:11.511Z,39.95
2023-08-05T09:49:42.923Z,39.94
2023-08-05T09:52:15.124Z,39.69
2023-08-05T09:54:47.434Z,39.33
2023-08-05T09:57:29.997Z,38.20
2023-08-05T10:00:06.859Z,38.56
2023-08-05T10:02:37.389Z,38.15
2023-08-05T10:05:09.180Z,38.42
2023-08-05T10:08:06.023Z,38.44
2023-08-05T10:10:33.018Z,37.67
2023-08-05T10:13:07.102Z,38.62
2023-08-05T10:15:41.944Z,37.63
2023-08-05T10:18:12.580Z,37.09
2023-08-05T10:20:46.038Z,37.14
2023-08-05T10:23:19.709Z,37.21
2023-08-05T10:25:53.964Z,37.43
2023-08-05T10:28:28.730Z,37.13
2023-08-05T10:30:58.894Z,37.61
2023-08-05T10:33:30.582Z,36.80
2023-08-05T10:36:09.547Z,37.36
2023-08-05T10:38:44.495Z,37.00
2023-08-05T10:41:18.961Z,37.50
2023-08-05T10:43:48.582Z,36.82
2023-08-05T10:46:19.049Z,36.06
2023-08-05T10:48:52.302Z,36.31
2023-08-05T10:51:24.221Z,36.59
2023-08-05T10:54:08.175Z,35.91
2023-08-05T10:56:39.732Z,36.45
2023-08-05T10:59:15.276Z,35.83
2023-08-05T11:02:01.417Z,36.00
2023-08-05T11:04:49.471Z,35.82
2023-08-05T11:07:30.363Z,36.00
2023-08-05T11:10:00.581Z,36.73
2023-08-05T11:12:32.794Z,36.26
2023-08-05T11:15:05.062Z,36.41
2023-08-05T11:17:35.407Z,36.23
2023-08-05T11:20:07.869Z,36.23
2023-08-05T11:22:37.948Z,36.93
2023-08-05T11:25:10.400Z,36.17
2023-08-05T11:27:43.308Z,36.08
2023-08-05T11:30:19.971Z,35.57
2023-08-05T11:32:58.890Z,35.08
2023-08-05T11:35:31.064Z,35.40
2023-08-05T11:38:00.317Z,35.04
2023-08-05T11:40:29.322Z,35.04
2023-08-05T11:42:58.982Z,35.84
2023-08-05T11:45:27.808Z,35.84
2023-08-05T11:47:56.966Z,34.31
2023-08-05T11:50:28.800Z,34.31
2023-08-05T11:53:08.991Z,35.33
2023-08-05T11:55:43.544Z,35.26
2023-08-05T11:58:16.239Z,35.05
2023-08-05T12:00:50.520Z,35.05
2023-08-05T12:03:22.858Z,34.57
2023-08-05T12:05:51.703Z,34.57
2023-08-05T12:08:46.499Z,33.82
2023-08-05T12:11:25.963Z,33.82
2023-08-05T12:16:57.554Z,33.61
2023-08-05T12:19:28.295Z,33.03
2023-08-05T12:21:57.386Z,33.53
2023-08-05T12:24:26.134Z,33.53
2023-08-05T12:26:55.029Z,33.09
2023-08-05T12:29:23.739Z,32.83
2023-08-05T12:31:52.655Z,32.96
2023-08-05T12:34:23.362Z,33.70
2023-08-05T12:36:53.700Z,33.08
2023-08-05T12:39:22.531Z,33.08
2023-08-05T12:44:50.543Z,33.78
2023-08-05T12:47:27.204Z,33.47
2023-08-05T12:49:59.561Z,33.26
2023-08-05T12:52:34.103Z,33.37
2023-08-05T12:55:07.435Z,33.55
2023-08-05T12:57:36.647Z,34.04
2023-08-05T13:00:06.011Z,34.04
2023-08-05T13:02:37.276Z,32.86
2023-08-05T13:05:06.321Z,33.03
2023-08-05T13:07:38.000Z,33.86
2023-08-05T13:10:10.327Z,34.13
2023-08-05T13:12:41.800Z,34.35
2023-08-05T13:15:11.474Z,34.45
2023-08-05T13:17:40.321Z,33.76
2023-08-05T13:20:10.078Z,33.68
2023-08-05T13:22:40.122Z,32.97
2023-08-05T13:25:17.509Z,32.40
2023-08-05T13:27:49.696Z,32.46
2023-08-05T13:30:29.016Z,32.59
2023-08-05T13:32:59.775Z,32.42
2023-08-05T13:35:31.702Z,32.34
2023-08-05T13:38:19.194Z,32.24
2023-08-05T13:41:08.192Z,31.99
2023-08-05T13:49:45.068Z,31.98
2023-08-05T13:52:15.458Z,31.23
2023-08-05T13:54:56.459Z,31.57
2023-08-05T13:57:55.834Z,30.89
2023-08-05T14:00:24.938Z,30.90
2023-08-05T14:02:56.700Z,30.73
2023-08-05T14:05:25.664Z,30.96
2023-08-05T14:08:02.058Z,31.01
2023-08-05T14:10:30.844Z,30.63
2023-08-05T14:12:59.730Z,30.68
2023-08-05T14:15:44.961Z,30.88
2023-08-05T14:18:15.063Z,31.18
2023-08-05T14:20:48.548Z,30.62
2023-08-05T14:23:17.931Z,30.85
2023-08-05T14:25:51.288Z,30.73
2023-08-05T14:28:21.981Z,30.87
2023-08-05T14:30:51.016Z,30.39
2023-08-05T14:33:22.998Z,30.08
2023-08-05T14:35:54.470Z,28.95
2023-08-05T14:38:22.768Z,27.13
2023-08-05T14:40:51.827Z,26.96
2023-08-05T14:43:21.090Z,26.42
2023-08-05T14:46:00.972Z,26.21
2023-08-05T14:48:40.782Z,26.37
2023-08-05T14:51:10.358Z,26.29
2023-08-05T14:53:55.458Z,25.03
2023-08-05T14:56:30.957Z,24.63
2023-08-05T14:59:05.818Z,25.20
2023-08-05T15:01:36.359Z,25.26
2023-08-05T15:07:19.848Z,25.02
2023-08-05T15:13:34.733Z,25.21
2023-08-05T15:16:13.803Z,25.35
2023-08-05T15:18:45.108Z,24.93
2023-08-05T15:21:14.193Z,24.97
2023-08-05T15:23:44.929Z,25.62
2023-08-05T15:26:13.487Z,25.68
2023-08-05T15:28:42.220Z,25.43
2023-08-05T15:31:26.263Z,25.03
2023-08-05T15:34:02.792Z,24.91
2023-08-05T15:36:37.744Z,25.20
2023-08-05T15:39:13.666Z,25.07
2023-08-05T15:41:55.033Z,25.76
2023-08-05T15:44:30.149Z,25.76
2023-08-05T15:47:37.884Z,25.90
2023-08-05T15:49:39.596Z,26.86
2023-08-05T15:52:11.612Z,26.64
2023-08-05T15:54:45.309Z,26.63
2023-08-05T15:57:18.773Z,27.41
2023-08-05T15:59:54.232Z,26.45
2023-08-05T16:02:27.211Z,27.43
2023-08-05T16:04:58.141Z,26.95
2023-08-05T16:07:31.727Z,27.33
2023-08-05T16:10:10.562Z,27.14
2023-08-05T16:12:41.427Z,26.79
2023-08-05T16:15:12.258Z,27.64
2023-08-05T16:17:43.910Z,27.69
2023-08-05T16:20:16.539Z,28.58
2023-08-05T16:22:56.286Z,29.48
2023-08-05T16:25:23.513Z,30.57
2023-08-05T16:30:50.273Z,32.01
2023-08-05T16:33:42.782Z,32.46
2023-08-05T16:36:13.343Z,32.46
2023-08-05T16:38:44.762Z,32.20
2023-08-05T16:41:13.781Z,32.44
2023-08-05T16:43:44.292Z,32.40
2023-08-05T16:46:13.582Z,32.70
2023-08-05T16:48:42.437Z,33.62
2023-08-05T16:51:12.677Z,33.79
2023-08-05T16:53:41.959Z,33.72
2023-08-05T16:56:11.695Z,34.18
2023-08-05T16:58:42.303Z,34.40
2023-08-05T17:01:33.649Z,34.81
2023-08-05T17:04:04.132Z,34.62
2023-08-05T17:06:33.256Z,35.09
2023-08-05T17:09:02.111Z,35.21
2023-08-05T17:12:05.069Z,35.67
2023-08-05T17:15:03.063Z,35.95
2023-08-05T17:17:24.067Z,36.43
2023-08-05T17:19:52.928Z,36.64
2023-08-05T17:22:26.203Z,36.72
2023-08-05T17:24:56.761Z,36.60
2023-08-05T17:27:27.368Z,36.96
2023-08-05T17:29:56.225Z,37.43
2023-08-05T17:32:41.384Z,37.44
2023-08-05T17:35:10.548Z,37.61
2023-08-05T17:37:42.420Z,37.71
2023-08-05T17:40:14.313Z,37.72
2023-08-05T17:42:43.105Z,38.50
2023-08-05T17:45:15.347Z,38.57
2023-08-05T17:47:45.079Z,39.70
2023-08-05T17:50:13.970Z,39.95
2023-08-05T17:52:50.116Z,40.01
2023-08-05T17:55:18.916Z,40.15
2023-08-05T17:57:52.314Z,39.94
2023-08-05T18:00:22.521Z,40.10
2023-08-05T18:02:51.279Z,40.68
2023-08-05T18:05:20.256Z,41.51
2023-08-05T18:07:49.082Z,41.84
2023-08-05T18:10:17.852Z,42.51
2023-08-05T18:12:47.104Z,42.68
2023-08-05T18:15:16.424Z,42.75
2023-08-05T18:17:46.870Z,43.39
2023-08-05T18:20:15.745Z,43.99
2023-08-05T18:22:45.033Z,43.67
2023-08-05T18:25:13.818Z,43.78
2023-08-05T18:27:42.550Z,44.35
2023-08-05T18:30:11.749Z,44.89
2023-08-05T18:32:41.995Z,44.95
2023-08-05T18:35:14.074Z,44.85
2023-08-05T18:37:45.317Z,46.26
2023-08-05T18:40:16.294Z,46.09
2023-08-05T18:42:47.322Z,46.54
2023-08-05T18:45:15.697Z,46.18
2023-08-05T18:47:44.537Z,45.78
2023-08-05T18:50:15.379Z,45.61
2023-08-05T18:52:44.929Z,42.41
2023-08-05T18:55:13.735Z,43.96
2023-08-05T18:57:42.472Z,45.01
2023-08-05T19:00:12.021Z,47.17
2023-08-05T19:02:40.778Z,48.61
2023-08-05T19:05:10.769Z,49.67
2023-08-05T19:07:39.750Z,51.29
2023-08-05T19:10:08.498Z,51.76
2023-08-05T19:12:37.137Z,52.17
2023-08-05T19:15:07.123Z,52.39
2023-08-05T19:17:42.424Z,53.32
2023-08-05T19:20:23.326Z,53.97
2023-08-05T19:22:52.255Z,53.76
2023-08-05T19:25:22.804Z,54.41
2023-08-05T19:28:00.467Z,54.84
2023-08-05T19:30:38.265Z,54.14
2023-08-05T19:33:12.061Z,54.44
2023-08-05T19:35:43.307Z,54.59
2023-08-05T19:38:12.496Z,54.36
2023-08-05T19:40:58.413Z,54.49
2023-08-05T19:43:35.283Z,54.76
2023-08-05T19:46:09.547Z,55.87
2023-08-05T19:48:38.758Z,56.08
2023-08-05T19:51:14.311Z,57.10
2023-08-05T19:53:41.345Z,58.29
2023-08-05T19:56:10.190Z,58.43
2023-08-05T19:58:39.281Z,59.13
2023-08-05T20:01:10.000Z,59.04
2023-08-05T20:03:38.987Z,59.10
2023-08-05T20:06:10.696Z,60.18
2023-08-05T20:08:40.890Z,60.60
2023-08-05T20:11:13.170Z,61.08
2023-08-05T20:13:42.012Z,61.33
2023-08-05T20:16:10.780Z,62.07
2023-08-05T20:18:39.558Z,61.78
2023-08-05T20:21:08.254Z,62.24
2023-08-05T20:23:37.616Z,62.27
2023-08-05T20:26:12.400Z,61.81
2023-08-05T20:28:41.165Z,61.31
2023-08-05T20:31:11.617Z,60.90
2023-08-05T20:36:34.780Z,62.76
2023-08-05T20:39:04.571Z,64.73
2023-08-05T20:41:33.266Z,64.76
2023-08-05T20:44:02.090Z,65.34
2023-08-05T20:46:30.946Z,65.93
2023-08-05T20:48:59.624Z,66.58
2023-08-05T20:51:31.496Z,64.83
2023-08-05T20:54:00.305Z,64.69
2023-08-05T20:56:28.998Z,63.65
2023-08-05T20:58:57.809Z,63.38
2023-08-05T21:01:26.617Z,62.23
2023-08-05T21:03:55.427Z,61.96
2023-08-05T21:06:24.143Z,61.98
2023-08-05T21:08:52.858Z,62.03
2023-08-05T21:11:21.642Z,62.15
2023-08-05T21:13:50.405Z,63.32
2023-08-05T21:16:20.253Z,64.11
2023-08-05T21:18:49.139Z,64.14
2023-08-05T21:21:18.004Z,64.88
2023-08-05T21:23:46.863Z,66.22
2023-08-05T21:26:16.564Z,67.80
2023-08-05T21:28:45.388Z,68.48
2023-08-05T21:31:14.243Z,70.10
2023-08-05T21:33:42.935Z,72.40
2023-08-05T21:36:11.943Z,74.64
2023-08-05T21:38:40.827Z,83.50
2023-08-05T21:48:00.143Z,98.97
2023-08-05T21:50:28.986Z,99.96
2023-08-05T21:52:57.702Z,100.00
2023-08-05T21:55:26.356Z,100.00
2023-08-05T21:57:55.105Z,100.00
2023-08-05T22:00:25.704Z,100.00
2023-08-05T22:02:54.497Z,100.00
2023-08-05T22:05:23.469Z,100.00
2023-08-05T22:07:52.643Z,100.00
2023-08-05T22:10:22.253Z,100.00
2023-08-05T22:12:51.945Z,100.00
2023-08-05T22:15:20.801Z,100.00
2023-08-05T22:17:50.143Z,100.00
2023-08-05T22:20:18.951Z,100.00
2023-08-05T22:22:49.610Z,100.00
2023-08-05T22:25:18.511Z,100.00
2023-08-05T22:27:47.595Z,100.00
2023-08-05T22:30:16.487Z,100.00
2023-08-05T22:32:45.555Z,100.00
2023-08-05T22:35:14.364Z,100.00
2023-08-05T22:37:47.751Z,100.00
2023-08-05T22:40:19.395Z,100.00
2023-08-05T22:42:47.156Z,100.00
2023-08-05T22:45:16.094Z,100.00
2023-08-05T22:47:47.996Z,100.00
2023-08-05T22:50:19.705Z,100.00
2023-08-05T22:52:48.411Z,100.00
2023-08-05T22:55:17.329Z,100.00
2023-08-05T22:57:46.157Z,100.00
2023-08-05T23:00:15.387Z,100.00
2023-08-05T23:03:12.608Z,100.00
2023-08-05T23:05:43.902Z,100.00
2023-08-05T23:08:12.946Z,100.00
2023-08-05T23:10:46.124Z,100.00
2023-08-05T23:14:03.468Z,100.00
2023-08-05T23:16:36.685Z,100.00
2023-08-05T23:19:10.355Z,100.00
2023-08-05T23:21:44.317Z,100.00
2023-08-05T23:24:13.312Z,100.00
2023-08-05T23:26:42.525Z,100.00
2023-08-05T23:29:11.519Z,100.00
2023-08-05T23:31:42.163Z,100.00
2023-08-05T23:34:13.893Z,100.00
2023-08-05T23:36:42.632Z,100.00
2023-08-05T23:39:19.663Z,100.00
2023-08-05T23:41:48.447Z,100.00
2023-08-05T23:44:17.508Z,100.00
2023-08-05T23:46:46.273Z,100.00
2023-08-05T23:49:15.448Z,100.00
2023-08-05T23:51:44.079Z,100.00
2023-08-05T23:54:12.888Z,100.00
2023-08-05T23:56:43.265Z,100.00
2023-08-05T23:59:12.252Z,100.00
